createdAt,value
2023-03-14T00:01:31.537Z,99.90
2023-03-14T00:03:58.360Z,99.90
2023-03-14T00:06:25.197Z,99.90
2023-03-14T00:08:52.880Z,99.90
2023-03-14T00:11:21.584Z,99.90
2023-03-14T00:13:52.601Z,99.90
2023-03-14T00:16:20.512Z,99.90
2023-03-14T00:18:48.272Z,99.90
2023-03-14T00:21:15.299Z,99.90
2023-03-14T00:23:43.496Z,99.90
2023-03-14T00:26:15.730Z,99.90
2023-03-14T00:28:43.784Z,99.90
2023-03-14T00:31:14.917Z,99.90
2023-03-14T00:33:42.520Z,99.90
2023-03-14T00:36:12.557Z,99.90
2023-03-14T00:38:41.095Z,99.90
2023-03-14T00:41:10.271Z,99.90
2023-03-14T00:43:37.270Z,99.90
2023-03-14T00:46:05.418Z,99.90
2023-03-14T00:48:32.197Z,99.90
2023-03-14T00:50:59.468Z,99.90
2023-03-14T00:53:26.310Z,99.90
2023-03-14T00:55:53.907Z,99.90
2023-03-14T00:58:20.711Z,99.90
2023-03-14T01:00:47.721Z,99.90
2023-03-14T01:03:15.714Z,99.90
2023-03-14T01:05:43.175Z,99.40
2023-03-14T01:08:10.164Z,99.10
2023-03-14T01:10:41.238Z,99.50
2023-03-14T01:13:09.401Z,99.30
2023-03-14T01:15:37.882Z,99.00
2023-03-14T01:18:04.996Z,99.00
2023-03-14T01:20:32.099Z,99.10
2023-03-14T01:22:59.126Z,99.30
2023-03-14T01:25:26.041Z,99.30
2023-03-14T01:27:52.944Z,99.80
2023-03-14T01:30:20.048Z,99.90
2023-03-14T01:32:46.991Z,99.90
2023-03-14T01:35:13.945Z,99.90
2023-03-14T01:37:41.348Z,99.90
2023-03-14T01:40:15.058Z,99.90
2023-03-14T01:42:55.977Z,99.90
2023-03-14T01:46:00.634Z,99.90
2023-03-14T01:48:32.049Z,99.90
2023-03-14T01:51:01.925Z,99.90
2023-03-14T01:53:30.094Z,99.90
2023-03-14T01:56:00.446Z,99.90
2023-03-14T01:58:29.821Z,99.90
2023-03-14T02:00:58.952Z,99.90
2023-03-14T02:03:27.965Z,99.90
2023-03-14T02:05:57.891Z,99.90
2023-03-14T02:08:25.544Z,99.90
2023-03-14T02:10:56.945Z,99.90
2023-03-14T02:13:36.332Z,99.90
2023-03-14T02:16:32.880Z,99.90
2023-03-14T02:19:27.860Z,99.90
2023-03-14T02:22:16.442Z,99.90
2023-03-14T02:25:09.508Z,99.90
2023-03-14T02:27:36.968Z,99.90
2023-03-14T02:30:11.979Z,99.90
2023-03-14T02:32:44.722Z,99.90
2023-03-14T02:35:19.585Z,99.90
2023-03-14T02:37:54.523Z,99.90
2023-03-14T02:40:23.305Z,99.90
2023-03-14T02:42:52.611Z,99.90
2023-03-14T02:45:22.340Z,99.90
2023-03-14T02:48:01.538Z,99.90
2023-03-14T02:50:34.357Z,99.90
2023-03-14T02:53:02.106Z,99.90
2023-03-14T02:55:29.178Z,99.90
2023-03-14T02:57:59.593Z,99.90
2023-03-14T03:00:26.893Z,99.90
2023-03-14T03:02:54.673Z,99.90
2023-03-14T03:05:21.590Z,99.90
2023-03-14T03:07:48.567Z,99.90
2023-03-14T03:10:15.456Z,99.90
2023-03-14T03:12:42.531Z,99.90
2023-03-14T03:15:09.902Z,99.90
2023-03-14T03:17:38.451Z,99.90
2023-03-14T03:20:09.832Z,99.90
2023-03-14T03:22:37.899Z,99.90
2023-03-14T03:25:05.749Z,99.90
2023-03-14T03:27:33.839Z,99.90
2023-03-14T03:30:01.432Z,99.90
2023-03-14T03:32:31.331Z,99.90
2023-03-14T03:34:58.439Z,99.90
2023-03-14T03:37:25.704Z,99.90
2023-03-14T03:39:52.759Z,99.90
2023-03-14T03:42:20.395Z,99.90
2023-03-14T03:44:48.360Z,99.90
2023-03-14T03:47:15.782Z,99.90
2023-03-14T03:49:42.574Z,99.90
2023-03-14T03:52:11.234Z,99.90
2023-03-14T03:54:38.041Z,99.90
2023-03-14T03:57:04.847Z,99.90
2023-03-14T03:59:31.619Z,99.90
2023-03-14T04:01:58.587Z,99.90
2023-03-14T04:04:25.908Z,99.90
2023-03-14T04:06:53.714Z,99.90
2023-03-14T04:09:20.693Z,99.90
2023-03-14T04:11:59.581Z,99.90
2023-03-14T04:14:35.550Z,99.90
2023-03-14T04:17:10.375Z,99.90
2023-03-14T04:19:37.833Z,99.90
2023-03-14T04:22:05.692Z,99.90
2023-03-14T04:24:37.849Z,99.90
2023-03-14T04:27:04.790Z,99.90
2023-03-14T04:29:32.806Z,99.90
2023-03-14T04:32:00.004Z,99.90
2023-03-14T04:34:26.905Z,99.90
2023-03-14T04:36:56.048Z,99.90
2023-03-14T04:39:30.149Z,99.90
2023-03-14T04:42:06.827Z,99.90
2023-03-14T04:44:34.840Z,99.90
2023-03-14T04:47:01.960Z,99.90
2023-03-14T04:49:28.841Z,99.90
2023-03-14T04:51:55.730Z,99.90
2023-03-14T04:54:25.401Z,99.90
2023-03-14T04:56:56.730Z,99.90
2023-03-14T04:59:24.649Z,99.90
2023-03-14T05:01:54.147Z,99.90
2023-03-14T05:04:41.690Z,99.90
2023-03-14T05:07:34.793Z,99.90
2023-03-14T05:10:17.358Z,99.90
2023-03-14T05:13:02.454Z,99.90
2023-03-14T05:15:47.871Z,99.90
2023-03-14T05:18:33.422Z,99.90
2023-03-14T05:21:38.935Z,99.90
2023-03-14T05:24:05.957Z,99.90
2023-03-14T05:26:50.967Z,99.90
2023-03-14T05:29:30.395Z,99.90
2023-03-14T05:32:05.964Z,99.90
2023-03-14T05:34:52.989Z,99.90
2023-03-14T05:37:34.108Z,99.90
2023-03-14T05:40:18.170Z,99.90
2023-03-14T05:43:04.408Z,99.90
2023-03-14T05:45:47.567Z,99.90
2023-03-14T05:48:33.142Z,99.90
2023-03-14T05:51:29.081Z,99.90
2023-03-14T05:54:24.871Z,99.90
2023-03-14T05:57:18.011Z,99.90
2023-03-14T06:00:04.396Z,99.90
2023-03-14T06:02:47.160Z,99.90
2023-03-14T06:05:22.203Z,99.90
2023-03-14T06:07:50.782Z,99.90
2023-03-14T06:10:17.941Z,99.90
2023-03-14T06:12:45.148Z,99.90
2023-03-14T06:15:12.305Z,99.90
2023-03-14T06:17:39.909Z,99.90
2023-03-14T06:20:11.740Z,99.90
2023-03-14T06:22:39.475Z,99.90
2023-03-14T06:25:07.303Z,99.90
2023-03-14T06:27:34.821Z,99.90
2023-03-14T06:30:01.992Z,99.90
2023-03-14T06:32:30.727Z,99.90
2023-03-14T06:35:02.240Z,99.90
2023-03-14T06:37:31.850Z,99.90
2023-03-14T06:39:58.796Z,99.90
2023-03-14T06:42:55.186Z,99.90
2023-03-14T06:45:24.456Z,99.90
2023-03-14T06:47:52.317Z,99.90
2023-03-14T06:50:24.100Z,99.90
2023-03-14T06:52:51.266Z,99.90
2023-03-14T06:55:22.808Z,99.90
2023-03-14T06:57:50.223Z,99.90
2023-03-14T07:00:17.742Z,99.90
2023-03-14T07:02:44.691Z,99.90
2023-03-14T07:05:22.717Z,99.90
2023-03-14T07:07:49.599Z,99.90
2023-03-14T07:10:17.753Z,99.90
2023-03-14T07:12:44.612Z,99.90
2023-03-14T07:15:18.515Z,99.90
2023-03-14T07:17:49.267Z,99.90
2023-03-14T07:20:18.442Z,99.90
2023-03-14T07:22:48.260Z,99.90
2023-03-14T07:25:15.161Z,99.90
2023-03-14T07:27:44.819Z,99.90
2023-03-14T07:30:13.023Z,99.90
2023-03-14T07:32:40.207Z,99.90
2023-03-14T07:35:08.209Z,99.90
2023-03-14T07:37:37.585Z,99.90
2023-03-14T07:40:08.260Z,99.90
2023-03-14T07:42:36.678Z,99.90
2023-03-14T07:45:29.747Z,99.90
2023-03-14T07:47:58.497Z,99.90
2023-03-14T07:50:26.933Z,99.90
2023-03-14T07:52:54.606Z,99.40
2023-03-14T07:55:21.739Z,99.10
2023-03-14T07:57:48.702Z,99.10
2023-03-14T08:00:16.224Z,98.80
2023-03-14T08:02:43.192Z,98.70
2023-03-14T08:05:11.141Z,98.80
2023-03-14T08:07:37.946Z,98.80
2023-03-14T08:10:06.145Z,98.90
2023-03-14T08:12:33.054Z,99.20
2023-03-14T08:15:00.611Z,99.40
2023-03-14T08:17:29.025Z,99.90
2023-03-14T08:19:55.926Z,99.70
2023-03-14T08:22:22.763Z,99.80
2023-03-14T08:24:49.614Z,99.90
2023-03-14T08:27:16.488Z,99.90
2023-03-14T08:29:43.304Z,99.90
2023-03-14T08:32:10.440Z,99.90
2023-03-14T08:34:38.509Z,99.90
2023-03-14T08:37:13.663Z,99.90
2023-03-14T08:39:50.432Z,99.90
2023-03-14T08:42:17.420Z,99.90
2023-03-14T08:44:44.423Z,99.90
2023-03-14T08:47:11.777Z,99.90
2023-03-14T08:49:38.708Z,99.90
2023-03-14T08:52:05.842Z,99.90
2023-03-14T08:54:33.298Z,99.90
2023-03-14T08:57:00.329Z,99.90
2023-03-14T08:59:27.318Z,99.90
2023-03-14T09:01:55.750Z,99.90
2023-03-14T09:04:23.079Z,99.90
2023-03-14T09:06:49.996Z,99.90
2023-03-14T09:09:16.881Z,99.90
2023-03-14T09:11:43.781Z,99.90
2023-03-14T09:14:10.735Z,99.90
2023-03-14T09:16:37.696Z,99.90
2023-03-14T09:19:04.779Z,99.90
2023-03-14T09:21:31.634Z,99.90
2023-03-14T09:23:58.407Z,99.90
2023-03-14T09:26:25.287Z,99.90
2023-03-14T09:28:52.200Z,99.90
2023-03-14T09:31:19.452Z,99.90
2023-03-14T09:33:46.498Z,99.80
2023-03-14T09:36:13.291Z,98.80
2023-03-14T09:38:40.090Z,98.20
2023-03-14T09:41:22.995Z,98.10
2023-03-14T09:43:55.343Z,97.70
2023-03-14T09:46:22.757Z,97.40
2023-03-14T09:48:49.637Z,96.60
2023-03-14T09:51:21.296Z,96.10
2023-03-14T09:53:50.026Z,96.40
2023-03-14T09:56:27.255Z,96.50
2023-03-14T09:59:00.216Z,96.30
2023-03-14T10:01:32.342Z,96.20
2023-03-14T10:04:07.906Z,96.40
2023-03-14T10:06:36.167Z,96.30
2023-03-14T10:09:04.488Z,95.90
2023-03-14T10:11:31.654Z,95.30
2023-03-14T10:14:10.947Z,94.90
2023-03-14T10:16:46.025Z,94.40
2023-03-14T10:19:18.340Z,93.80
2023-03-14T10:21:54.551Z,93.40
2023-03-14T10:24:30.206Z,93.20
2023-03-14T10:27:03.260Z,92.70
2023-03-14T10:29:34.940Z,91.90
2023-03-14T10:32:08.887Z,90.90
2023-03-14T10:34:38.054Z,90.50
2023-03-14T10:37:22.676Z,88.80
2023-03-14T10:39:52.888Z,86.40
2023-03-14T10:42:22.426Z,84.60
2023-03-14T10:44:57.268Z,83.60
2023-03-14T10:47:26.946Z,81.80
2023-03-14T10:49:53.843Z,79.40
2023-03-14T10:52:35.682Z,78.10
2023-03-14T10:55:12.778Z,75.60
2023-03-14T10:57:43.634Z,73.50
2023-03-14T11:00:19.044Z,71.80
2023-03-14T11:02:55.576Z,70.70
2023-03-14T11:05:50.520Z,70.80
2023-03-14T11:08:26.262Z,71.00
2023-03-14T11:11:08.676Z,71.20
2023-03-14T11:13:44.482Z,72.20
2023-03-14T11:16:23.841Z,73.80
2023-03-14T11:19:12.626Z,75.00
2023-03-14T11:21:56.888Z,74.90
2023-03-14T11:24:57.807Z,76.30
2023-03-14T11:27:30.338Z,76.10
2023-03-14T11:30:17.506Z,75.50
2023-03-14T11:32:52.055Z,75.80
2023-03-14T11:35:27.584Z,75.50
2023-03-14T11:38:25.289Z,76.00
2023-03-14T11:40:52.768Z,75.90
2023-03-14T11:43:30.398Z,76.40
2023-03-14T11:46:15.553Z,76.10
2023-03-14T11:49:07.121Z,74.00
2023-03-14T11:51:38.156Z,75.50
2023-03-14T11:54:30.608Z,74.30
2023-03-14T11:57:04.409Z,73.60
2023-03-14T11:59:56.007Z,74.00
2023-03-14T12:02:32.374Z,74.10
2023-03-14T12:05:31.627Z,74.40
2023-03-14T12:08:10.687Z,75.20
2023-03-14T12:10:52.041Z,74.20
2023-03-14T12:13:19.467Z,73.70
2023-03-14T12:16:00.837Z,72.40
2023-03-14T12:18:33.597Z,72.70
2023-03-14T12:21:03.792Z,73.40
2023-03-14T12:23:43.522Z,71.60
2023-03-14T12:26:13.323Z,71.10
2023-03-14T12:28:46.128Z,70.60
2023-03-14T12:31:33.785Z,69.10
2023-03-14T12:34:12.637Z,68.60
2023-03-14T12:36:51.303Z,68.20
2023-03-14T12:39:46.868Z,66.00
2023-03-14T12:42:44.585Z,64.50
2023-03-14T12:45:32.014Z,67.20
2023-03-14T12:48:08.080Z,64.10
2023-03-14T12:50:45.356Z,65.80
2023-03-14T12:53:33.905Z,64.30
2023-03-14T12:56:26.256Z,63.70
2023-03-14T12:59:10.057Z,60.60
2023-03-14T13:01:37.365Z,61.00
2023-03-14T13:04:10.746Z,62.80
2023-03-14T13:06:57.892Z,60.80
2023-03-14T13:09:31.074Z,61.60
2023-03-14T13:12:10.881Z,61.50
2023-03-14T13:14:42.333Z,60.60
2023-03-14T13:17:33.520Z,59.30
2023-03-14T13:20:15.180Z,59.70
2023-03-14T13:22:48.455Z,59.20
2023-03-14T13:25:17.708Z,59.60
2023-03-14T13:27:44.709Z,59.20
2023-03-14T13:30:22.378Z,58.50
2023-03-14T13:32:50.282Z,57.90
2023-03-14T13:35:28.901Z,55.90
2023-03-14T13:38:12.206Z,55.60
2023-03-14T13:40:39.592Z,56.00
2023-03-14T13:43:18.579Z,57.60
2023-03-14T13:45:50.139Z,57.30
2023-03-14T13:48:17.728Z,56.30
2023-03-14T13:50:53.325Z,53.80
2023-03-14T13:53:20.738Z,54.50
2023-03-14T13:55:47.600Z,53.80
2023-03-14T13:58:29.947Z,53.50
2023-03-14T14:01:06.330Z,53.60
2023-03-14T14:03:36.945Z,55.20
2023-03-14T14:06:04.754Z,55.80
2023-03-14T14:08:31.615Z,56.00
2023-03-14T14:11:03.727Z,55.80
2023-03-14T14:13:35.648Z,55.60
2023-03-14T14:16:04.923Z,55.40
2023-03-14T14:18:33.201Z,56.10
2023-03-14T14:21:00.351Z,56.60
2023-03-14T14:23:30.011Z,57.20
2023-03-14T14:25:58.928Z,55.60
2023-03-14T14:28:37.544Z,55.00
2023-03-14T14:31:17.084Z,55.70
2023-03-14T14:33:46.411Z,57.50
2023-03-14T14:36:27.859Z,56.50
2023-03-14T14:39:06.049Z,57.10
2023-03-14T14:41:40.195Z,56.50
2023-03-14T14:44:08.296Z,57.00
2023-03-14T14:46:38.686Z,57.50
2023-03-14T14:49:18.918Z,56.90
2023-03-14T14:51:50.351Z,57.20
2023-03-14T14:54:20.275Z,57.50
2023-03-14T14:56:54.462Z,57.10
2023-03-14T14:59:28.585Z,57.70
2023-03-14T15:02:03.698Z,57.40
2023-03-14T15:04:33.520Z,58.00
2023-03-14T15:07:00.526Z,57.30
2023-03-14T15:09:27.409Z,57.70
2023-03-14T15:11:54.277Z,58.10
2023-03-14T15:14:21.177Z,58.00
2023-03-14T15:16:48.025Z,57.40
2023-03-14T15:19:25.695Z,53.70
2023-03-14T15:21:55.862Z,54.40
2023-03-14T15:24:23.637Z,55.40
2023-03-14T15:26:50.846Z,54.90
2023-03-14T15:29:17.704Z,54.10
2023-03-14T15:31:45.052Z,55.10
2023-03-14T15:34:12.409Z,53.90
2023-03-14T15:36:39.332Z,55.50
2023-03-14T15:39:07.822Z,53.40
2023-03-14T15:41:35.180Z,52.90
2023-03-14T15:44:01.992Z,52.30
2023-03-14T15:46:31.064Z,51.60
2023-03-14T15:48:58.266Z,53.20
2023-03-14T15:51:25.206Z,54.40
2023-03-14T15:53:52.712Z,55.00
2023-03-14T15:56:21.271Z,53.40
2023-03-14T15:58:48.166Z,54.30
2023-03-14T16:01:19.501Z,54.50
2023-03-14T16:03:46.908Z,53.90
2023-03-14T16:06:14.823Z,53.60
2023-03-14T16:08:43.453Z,53.30
2023-03-14T16:11:12.659Z,53.00
2023-03-14T16:13:40.602Z,54.50
2023-03-14T16:16:08.927Z,52.80
2023-03-14T16:18:38.707Z,54.00
2023-03-14T16:21:12.999Z,53.90
2023-03-14T16:23:40.109Z,55.00
2023-03-14T16:26:09.571Z,55.60
2023-03-14T16:28:36.477Z,54.90
2023-03-14T16:31:05.866Z,54.20
2023-03-14T16:33:33.878Z,55.80
2023-03-14T16:36:06.189Z,56.40
2023-03-14T16:38:34.160Z,54.50
2023-03-14T16:41:07.435Z,56.00
2023-03-14T16:43:37.238Z,54.90
2023-03-14T16:46:05.953Z,55.20
2023-03-14T16:48:33.118Z,55.20
2023-03-14T16:50:59.992Z,55.80
2023-03-14T16:53:29.934Z,55.70
2023-03-14T16:55:58.469Z,56.30
2023-03-14T16:58:25.518Z,55.80
2023-03-14T17:00:52.442Z,55.60
2023-03-14T17:03:19.550Z,56.00
2023-03-14T17:05:52.089Z,56.80
2023-03-14T17:08:19.946Z,56.70
2023-03-14T17:10:47.311Z,56.80
2023-03-14T17:13:14.298Z,58.20
2023-03-14T17:15:46.695Z,60.40
2023-03-14T17:18:13.775Z,60.10
2023-03-14T17:20:41.236Z,61.00
2023-03-14T17:23:08.948Z,61.10
2023-03-14T17:25:37.649Z,60.80
2023-03-14T17:28:05.423Z,61.90
2023-03-14T17:30:32.653Z,62.00
2023-03-14T17:32:59.550Z,61.60
2023-03-14T17:35:26.769Z,61.50
2023-03-14T17:37:53.756Z,61.40
2023-03-14T17:40:20.630Z,61.80
2023-03-14T17:42:47.468Z,60.80
2023-03-14T17:45:14.330Z,58.70
2023-03-14T17:47:41.169Z,57.50
2023-03-14T17:50:08.683Z,57.20
2023-03-14T17:52:36.526Z,59.90
2023-03-14T17:55:05.196Z,59.10
2023-03-14T17:57:32.532Z,60.60
2023-03-14T17:59:59.453Z,60.40
2023-03-14T18:02:26.621Z,60.40
2023-03-14T18:04:53.628Z,60.90
2023-03-14T18:07:20.821Z,60.30
2023-03-14T18:09:48.100Z,60.40
2023-03-14T18:12:15.075Z,60.00
2023-03-14T18:14:44.305Z,58.90
2023-03-14T18:17:15.237Z,57.90
2023-03-14T18:19:42.296Z,58.50
2023-03-14T18:22:09.399Z,58.00
2023-03-14T18:24:36.304Z,57.10
2023-03-14T18:27:03.582Z,58.30
2023-03-14T18:29:30.687Z,56.70
2023-03-14T18:31:58.360Z,56.60
2023-03-14T18:34:26.373Z,57.80
2023-03-14T18:36:53.414Z,58.00
2023-03-14T18:39:21.448Z,58.90
2023-03-14T18:41:48.206Z,59.60
2023-03-14T18:44:15.005Z,59.80
2023-03-14T18:46:42.486Z,59.50
2023-03-14T18:49:10.939Z,60.20
2023-03-14T18:51:37.861Z,61.90
2023-03-14T18:54:10.257Z,62.80
2023-03-14T18:56:39.379Z,63.40
2023-03-14T18:59:06.970Z,64.70
2023-03-14T19:01:34.318Z,65.70
2023-03-14T19:04:02.757Z,65.90
2023-03-14T19:06:33.903Z,66.40
2023-03-14T19:09:01.917Z,66.80
2023-03-14T19:11:28.856Z,66.00
2023-03-14T19:13:56.870Z,65.30
2023-03-14T19:16:24.821Z,65.10
2023-03-14T19:18:55.688Z,65.60
2023-03-14T19:21:32.310Z,66.50
2023-03-14T19:23:59.587Z,65.90
2023-03-14T19:26:28.741Z,64.80
2023-03-14T19:28:55.718Z,64.60
2023-03-14T19:31:22.831Z,63.00
2023-03-14T19:33:49.675Z,62.40
2023-03-14T19:36:31.254Z,61.70
2023-03-14T19:39:01.892Z,63.00
2023-03-14T19:41:29.052Z,63.90
2023-03-14T19:43:56.062Z,64.70
2023-03-14T19:46:23.604Z,65.30
2023-03-14T19:48:54.363Z,66.30
2023-03-14T19:51:24.538Z,66.60
2023-03-14T19:53:52.360Z,67.20
2023-03-14T19:56:20.708Z,67.60
2023-03-14T19:58:47.762Z,68.10
2023-03-14T20:01:14.666Z,68.60
2023-03-14T20:03:41.490Z,68.70
2023-03-14T20:06:09.795Z,68.60
2023-03-14T20:08:36.619Z,69.30
2023-03-14T20:11:05.147Z,69.30
2023-03-14T20:13:32.272Z,69.90
2023-03-14T20:15:59.095Z,69.50
2023-03-14T20:18:26.105Z,68.80
2023-03-14T20:20:53.265Z,68.80
2023-03-14T20:23:20.274Z,69.30
2023-03-14T20:25:56.916Z,69.00
2023-03-14T20:28:24.358Z,69.10
2023-03-14T20:30:51.798Z,69.00
2023-03-14T20:33:19.806Z,68.80
2023-03-14T20:35:54.348Z,68.70
2023-03-14T20:38:21.602Z,69.10
2023-03-14T20:40:48.364Z,69.70
2023-03-14T20:43:15.180Z,69.60
2023-03-14T20:45:42.119Z,68.50
2023-03-14T20:48:08.894Z,68.80
2023-03-14T20:50:35.839Z,70.30
2023-03-14T20:53:02.755Z,69.80
2023-03-14T20:55:29.597Z,69.30
2023-03-14T20:57:56.412Z,69.70
2023-03-14T21:00:23.633Z,70.90
2023-03-14T21:03:08.358Z,71.90
2023-03-14T21:05:35.326Z,70.70
2023-03-14T21:08:02.430Z,70.40
2023-03-14T21:10:29.243Z,70.00
2023-03-14T21:12:56.034Z,70.10
2023-03-14T21:15:22.928Z,70.80
2023-03-14T21:17:49.744Z,71.60
2023-03-14T21:20:16.680Z,72.80
2023-03-14T21:22:43.523Z,73.40
2023-03-14T21:25:11.283Z,73.20
2023-03-14T21:27:39.394Z,73.80
2023-03-14T21:30:07.521Z,74.30
2023-03-14T21:32:34.571Z,73.70
2023-03-14T21:35:01.368Z,74.10
2023-03-14T21:37:28.264Z,74.20
2023-03-14T21:39:55.752Z,75.50
2023-03-14T21:42:23.761Z,75.20
2023-03-14T21:44:52.187Z,75.00
2023-03-14T21:47:23.469Z,75.50
2023-03-14T21:49:51.522Z,74.90
2023-03-14T21:52:18.387Z,76.00
2023-03-14T21:54:45.328Z,74.70
2023-03-14T21:57:14.380Z,74.70
2023-03-14T21:59:42.460Z,74.70
2023-03-14T22:02:17.855Z,74.30
2023-03-14T22:04:45.194Z,73.60
2023-03-14T22:07:16.640Z,73.50
2023-03-14T22:09:45.689Z,73.70
2023-03-14T22:12:17.306Z,73.90
2023-03-14T22:14:44.323Z,74.60
2023-03-14T22:17:11.185Z,75.30
2023-03-14T22:19:38.142Z,76.10
2023-03-14T22:22:05.162Z,75.00
2023-03-14T22:24:32.012Z,75.40
2023-03-14T22:26:58.761Z,75.50
2023-03-14T22:29:25.761Z,77.10
2023-03-14T22:31:52.639Z,78.80
2023-03-14T22:34:19.506Z,77.40
2023-03-14T22:36:46.375Z,76.30
2023-03-14T22:39:13.233Z,75.50
2023-03-14T22:41:40.033Z,75.80
2023-03-14T22:44:06.894Z,76.60
2023-03-14T22:46:33.879Z,76.70
2023-03-14T22:49:00.921Z,76.50
2023-03-14T22:51:27.696Z,77.80
2023-03-14T22:53:55.050Z,76.80
2023-03-14T22:56:21.893Z,77.80
2023-03-14T22:58:48.783Z,78.40
2023-03-14T23:01:15.791Z,77.30
2023-03-14T23:03:42.768Z,79.10
2023-03-14T23:06:09.765Z,77.00
2023-03-14T23:08:38.103Z,80.60
2023-03-14T23:11:06.570Z,81.70
2023-03-14T23:13:34.685Z,77.50
2023-03-14T23:16:02.485Z,75.50
2023-03-14T23:18:29.568Z,75.60
2023-03-14T23:21:17.609Z,75.60
2023-03-14T23:23:49.230Z,75.20
2023-03-14T23:26:19.326Z,75.60
2023-03-14T23:28:46.096Z,75.00
2023-03-14T23:31:14.612Z,75.70
2023-03-14T23:33:43.061Z,76.60
2023-03-14T23:36:13.309Z,77.40
2023-03-14T23:38:42.148Z,77.00
2023-03-14T23:41:14.640Z,76.70
2023-03-14T23:43:45.318Z,77.10
2023-03-14T23:46:12.726Z,76.50
2023-03-14T23:48:39.767Z,77.10
2023-03-14T23:51:09.288Z,76.10
2023-03-14T23:53:36.438Z,76.40
2023-03-14T23:56:04.144Z,76.60
2023-03-14T23:58:36.276Z,78.10
